Terminal Aerodrome Forecast
Issued by NWS Shreveport, LA

Home | Current Version | Previous Version | Text Only | Print | Product List | Glossary On
Versions: 1 2 3 4 5 6 7 8 9 10 11 12 13 14 15 16 17 18 19 20 21 22
492
FTUS44 KSHV 011132
TAFSHV
TAF
KSHV 011132Z 0112/0212 02006KT P6SM SCT030 SCT050
      TEMPO 0114/0118 05007KT P6SM BKN015 BKN045
     FM011800 07006KT P6SM BKN035
     FM012000 11007KT P6SM VCTS BKN035CB
     FM020000 13006KT P6SM VCTS BKN035CB
     FM020600 10005KT P6SM VCTS BKN015CB=

USA.gov is the U.S. government's official web portal to all federal, state and local government web resources and services.